createdAt,value
2022-12-11T00:02:18.867Z,44.63
2022-12-11T00:05:09.610Z,40.07
2022-12-11T00:07:59.299Z,37.07
2022-12-11T00:10:51.370Z,37.80
2022-12-11T00:13:40.031Z,41.97
2022-12-11T00:16:29.039Z,41.57
2022-12-11T00:19:20.123Z,40.00
2022-12-11T00:22:09.813Z,41.33
2022-12-11T00:24:59.381Z,38.73
2022-12-11T00:27:48.749Z,40.20
2022-12-11T00:30:41.761Z,36.93
2022-12-11T00:33:30.741Z,39.87
2022-12-11T00:36:22.490Z,38.77
2022-12-11T00:39:11.370Z,40.77
2022-12-11T00:42:00.690Z,41.37
2022-12-11T00:44:51.247Z,40.17
2022-12-11T00:47:41.035Z,40.47
2022-12-11T00:50:30.202Z,43.10
2022-12-11T00:53:21.342Z,40.60
2022-12-11T00:56:15.349Z,41.50
2022-12-11T00:59:04.524Z,42.97
2022-12-11T01:01:53.870Z,41.90
2022-12-11T01:04:43.222Z,45.13
2022-12-11T01:07:32.325Z,44.67
2022-12-11T01:10:26.505Z,43.57
2022-12-11T01:13:15.787Z,40.73
2022-12-11T01:16:09.594Z,40.77
2022-12-11T01:18:59.233Z,39.70
2022-12-11T01:21:47.999Z,38.70
2022-12-11T01:24:37.483Z,43.37
2022-12-11T01:27:28.404Z,43.73
2022-12-11T01:30:17.561Z,42.23
2022-12-11T01:33:07.004Z,43.53
2022-12-11T01:35:57.133Z,40.33
2022-12-11T01:38:46.545Z,43.67
2022-12-11T01:41:35.681Z,44.80
2022-12-11T01:45:01.932Z,41.07
2022-12-11T01:47:53.538Z,45.07
2022-12-11T01:50:48.508Z,40.07
2022-12-11T01:53:40.966Z,41.93
2022-12-11T01:56:33.097Z,45.70
2022-12-11T01:59:25.393Z,43.37
2022-12-11T02:02:18.666Z,45.97
2022-12-11T02:05:10.440Z,48.03
2022-12-11T02:08:02.838Z,41.90
2022-12-11T02:11:07.636Z,48.13
2022-12-11T02:14:04.484Z,46.50
2022-12-11T02:16:58.848Z,50.17
2022-12-11T02:19:58.972Z,45.33
2022-12-11T02:23:15.785Z,43.90
2022-12-11T02:26:16.143Z,48.00
2022-12-11T02:29:10.394Z,44.33
2022-12-11T02:32:03.271Z,42.10
2022-12-11T02:34:59.478Z,42.13
2022-12-11T02:37:51.281Z,39.87
2022-12-11T02:40:43.876Z,37.13
2022-12-11T02:43:35.423Z,40.73
2022-12-11T02:46:27.798Z,38.27
2022-12-11T02:49:17.527Z,37.13
2022-12-11T02:52:08.146Z,35.73
2022-12-11T07:06:09.156Z,21.37
2022-12-11T07:08:59.545Z,20.70
2022-12-11T07:11:52.042Z,20.60
2022-12-11T07:14:41.471Z,18.30
2022-12-11T07:17:31.538Z,19.20
2022-12-11T07:20:20.763Z,17.57
2022-12-11T07:23:09.969Z,20.03
2022-12-11T07:26:01.592Z,15.87
2022-12-11T07:28:51.139Z,16.87
2022-12-11T07:31:40.541Z,18.13
2022-12-11T07:34:30.105Z,15.20
2022-12-11T07:37:19.556Z,16.03
2022-12-11T07:40:10.730Z,18.80
2022-12-11T07:43:01.857Z,13.97
2022-12-11T07:45:51.394Z,19.20
2022-12-11T07:48:41.808Z,14.50
2022-12-11T07:51:32.784Z,13.37
2022-12-11T07:54:22.108Z,14.67
2022-12-11T07:57:14.237Z,12.23
2022-12-11T08:00:05.967Z,12.83
2022-12-11T08:02:55.020Z,12.67
2022-12-11T08:05:49.731Z,13.73
2022-12-11T08:08:39.803Z,13.90
2022-12-11T08:11:30.075Z,14.80
2022-12-11T08:14:19.896Z,13.03
2022-12-11T08:17:10.504Z,12.83
2022-12-11T08:19:59.576Z,14.20
2022-12-11T08:22:54.604Z,10.53
2022-12-11T08:25:46.745Z,10.50
2022-12-11T08:28:35.944Z,11.27
2022-12-11T08:31:25.930Z,10.67
2022-12-11T08:34:15.944Z,10.37
2022-12-11T08:37:05.087Z,9.70
2022-12-11T08:39:54.472Z,11.03
2022-12-11T08:42:46.626Z,13.23
2022-12-11T08:45:35.974Z,11.63
2022-12-11T08:48:25.197Z,10.53
2022-12-11T08:51:18.229Z,12.23
2022-12-11T08:54:07.603Z,9.80
2022-12-11T08:56:58.310Z,12.37
2022-12-11T08:59:47.757Z,14.37
2022-12-11T09:02:37.235Z,12.77
2022-12-11T09:05:26.715Z,14.33
2022-12-11T09:08:17.607Z,11.30
2022-12-11T09:11:08.608Z,12.57
2022-12-11T09:14:03.587Z,13.03
2022-12-11T09:16:56.774Z,10.13
2022-12-11T09:19:46.335Z,13.13
2022-12-11T09:22:35.443Z,12.27
2022-12-11T09:25:26.326Z,12.67
2022-12-11T09:28:16.607Z,12.97
2022-12-11T09:31:10.072Z,10.67
2022-12-11T09:34:01.962Z,9.30
2022-12-11T09:36:51.345Z,10.53
2022-12-11T09:39:40.959Z,10.57
2022-12-11T09:42:39.571Z,13.63
2022-12-11T09:45:29.227Z,11.97
2022-12-11T09:48:22.207Z,12.43
2022-12-11T09:51:20.503Z,10.20
2022-12-11T09:54:12.382Z,12.67
2022-12-11T09:57:09.809Z,9.00
2022-12-11T10:00:13.923Z,11.77
2022-12-11T10:03:27.527Z,14.30
2022-12-11T10:06:22.768Z,9.90
2022-12-11T10:09:21.031Z,11.17
2022-12-11T10:12:23.814Z,11.97
2022-12-11T10:15:25.598Z,10.50
2022-12-11T10:18:21.655Z,11.97
2022-12-11T10:21:12.742Z,13.33
2022-12-11T10:24:05.265Z,14.27
2022-12-11T10:26:58.384Z,11.67
2022-12-11T10:29:47.561Z,12.67
2022-12-11T10:32:46.604Z,9.20
2022-12-11T10:35:38.203Z,11.60
2022-12-11T10:38:30.131Z,10.97
2022-12-11T10:41:21.292Z,10.57
2022-12-11T10:44:18.325Z,11.67
2022-12-11T10:47:08.939Z,10.33
2022-12-11T10:50:00.527Z,9.63
2022-12-11T10:52:50.064Z,10.53
2022-12-11T10:55:42.891Z,12.33
2022-12-11T10:58:34.269Z,11.03
2022-12-11T11:01:24.693Z,14.47
2022-12-11T11:04:17.749Z,10.43
2022-12-11T11:07:13.939Z,14.67
2022-12-11T11:10:09.442Z,10.60
2022-12-11T11:13:02.542Z,10.57
2022-12-11T11:15:52.897Z,10.27
2022-12-11T11:18:43.905Z,10.50
2022-12-11T11:21:34.236Z,9.73
2022-12-11T11:24:35.985Z,11.43
2022-12-11T11:27:31.061Z,11.93
2022-12-11T11:30:22.630Z,21.13
2022-12-11T11:33:15.767Z,27.60
2022-12-11T11:36:06.760Z,22.87
2022-12-11T11:39:12.177Z,17.10
2022-12-11T11:42:11.975Z,22.03
2022-12-11T11:45:05.141Z,33.77
2022-12-11T11:48:10.936Z,29.63
2022-12-11T11:51:00.801Z,29.00
2022-12-11T11:53:52.416Z,32.17
2022-12-11T11:56:41.880Z,30.77
2022-12-11T11:59:36.320Z,29.40
2022-12-11T12:02:26.500Z,27.87
2022-12-11T12:05:16.459Z,34.13
2022-12-11T12:08:15.937Z,27.30
2022-12-11T12:11:09.895Z,39.03
2022-12-11T12:14:29.073Z,32.43
2022-12-11T12:17:28.692Z,27.20
2022-12-11T12:20:26.706Z,32.03
2022-12-11T12:23:36.924Z,22.87
2022-12-11T12:26:29.281Z,24.27
2022-12-11T12:29:26.232Z,16.03
2022-12-11T12:32:26.097Z,22.37
2022-12-11T12:35:32.219Z,18.70
2022-12-11T12:38:29.227Z,19.60
2022-12-11T12:41:23.589Z,21.33
2022-12-11T12:44:16.524Z,21.07
2022-12-11T12:47:11.389Z,21.33
2022-12-11T12:50:04.588Z,25.50
2022-12-11T13:07:01.197Z,11.47
2022-12-11T13:10:01.933Z,12.30
2022-12-11T13:12:51.247Z,14.10
2022-12-11T13:15:44.100Z,6.73
2022-12-11T13:18:36.245Z,5.47
2022-12-11T13:21:30.494Z,7.37
2022-12-11T13:24:29.367Z,4.17
2022-12-11T13:27:26.107Z,4.73
2022-12-11T13:30:24.727Z,3.10
2022-12-11T13:33:20.067Z,4.53
2022-12-11T13:36:29.220Z,6.73
2022-12-11T13:39:24.359Z,2.77
2022-12-11T13:42:27.594Z,3.70
2022-12-11T13:45:23.638Z,4.57
2022-12-11T13:48:21.138Z,3.70
2022-12-11T13:51:15.945Z,3.70
2022-12-11T13:54:09.775Z,2.67
2022-12-11T13:57:06.449Z,4.77
2022-12-11T13:59:58.000Z,3.77
2022-12-11T14:02:47.316Z,2.43
2022-12-11T14:05:36.686Z,2.27
2022-12-11T14:08:33.250Z,2.67
2022-12-11T14:11:27.849Z,2.33
2022-12-11T14:14:24.240Z,2.43
2022-12-11T14:17:16.857Z,4.80
2022-12-11T14:20:09.097Z,3.03
2022-12-11T14:23:07.242Z,2.67
2022-12-11T14:25:58.323Z,4.17
2022-12-11T14:28:47.405Z,2.57
2022-12-11T14:31:42.429Z,2.63
2022-12-11T14:34:36.194Z,5.67
2022-12-11T14:37:26.776Z,15.20
2022-12-11T14:40:20.463Z,16.73
2022-12-11T14:43:13.531Z,14.10
2022-12-11T14:46:08.838Z,4.07
2022-12-11T14:49:03.263Z,3.13
2022-12-11T14:51:55.528Z,3.03
2022-12-11T14:54:47.843Z,2.97
2022-12-11T14:57:38.911Z,3.07
2022-12-11T15:00:30.403Z,3.33
2022-12-11T15:03:25.332Z,4.33
2022-12-11T15:06:27.894Z,2.77
2022-12-11T15:09:21.801Z,3.97
2022-12-11T15:12:13.548Z,4.60
2022-12-11T15:15:07.334Z,5.03
2022-12-11T15:17:56.533Z,4.27
2022-12-11T15:20:45.524Z,4.80
2022-12-11T15:23:41.549Z,3.83
2022-12-11T15:26:39.033Z,3.43
2022-12-11T15:29:35.253Z,3.20
2022-12-11T15:32:23.986Z,3.90
2022-12-11T15:35:25.625Z,4.37
2022-12-11T15:38:29.668Z,3.60
2022-12-11T15:41:24.228Z,4.77
2022-12-11T15:44:21.135Z,4.33
2022-12-11T15:47:16.368Z,5.20
2022-12-11T15:50:16.466Z,4.07
2022-12-11T15:53:06.170Z,3.70
2022-12-11T15:55:55.878Z,4.40
2022-12-11T15:58:48.435Z,5.47
2022-12-11T16:01:37.370Z,4.23
2022-12-11T16:04:26.653Z,4.27
2022-12-11T16:07:20.373Z,5.47
2022-12-11T16:10:14.497Z,6.93
2022-12-11T16:13:04.137Z,22.90
2022-12-11T16:15:55.194Z,11.63
2022-12-11T16:18:44.607Z,7.50
2022-12-11T16:21:34.658Z,3.50
2022-12-11T16:24:24.560Z,3.70
2022-12-11T16:27:16.271Z,10.53
2022-12-11T16:30:11.378Z,8.20
2022-12-11T16:33:04.754Z,7.53
2022-12-11T16:35:57.076Z,6.50
2022-12-11T16:38:53.106Z,8.80
2022-12-11T16:41:43.565Z,9.90
2022-12-11T16:44:33.389Z,9.67
2022-12-11T16:47:22.566Z,7.37
2022-12-11T16:50:15.314Z,5.17
2022-12-11T16:53:04.721Z,7.63
2022-12-11T16:55:54.318Z,9.33
2022-12-11T16:58:43.461Z,10.57
2022-12-11T17:01:33.182Z,8.37
2022-12-11T17:04:22.459Z,3.17
2022-12-11T17:07:13.473Z,5.53
2022-12-11T17:10:03.904Z,4.87
2022-12-11T17:12:52.868Z,4.97
2022-12-11T17:15:43.115Z,6.33
2022-12-11T17:18:32.595Z,5.37
2022-12-11T17:21:24.138Z,7.13
2022-12-11T17:24:15.496Z,5.50
2022-12-11T17:27:04.776Z,5.97
2022-12-11T17:29:54.101Z,6.37
2022-12-11T17:32:43.241Z,6.07
2022-12-11T17:35:33.569Z,4.37
2022-12-11T17:38:22.950Z,6.30
2022-12-11T17:41:20.505Z,6.30
2022-12-11T17:44:10.162Z,8.77
2022-12-11T17:47:00.189Z,7.90
2022-12-11T17:49:49.626Z,7.63
2022-12-11T17:52:44.018Z,7.03
2022-12-11T17:55:34.347Z,7.03
2022-12-11T17:58:25.427Z,8.40
2022-12-11T18:01:14.859Z,11.87
2022-12-11T18:04:04.292Z,8.23
2022-12-11T18:06:53.693Z,8.07
2022-12-11T18:09:42.840Z,8.97
2022-12-11T18:12:32.577Z,7.33
2022-12-11T18:15:23.116Z,8.57
2022-12-11T18:18:12.493Z,6.70
2022-12-11T18:21:02.202Z,9.60
2022-12-11T18:23:51.552Z,7.40
2022-12-11T18:26:42.774Z,8.03
2022-12-11T18:29:32.121Z,8.70
2022-12-11T18:32:22.921Z,8.07
2022-12-11T18:35:12.976Z,8.80
2022-12-11T18:38:02.441Z,6.63
2022-12-11T18:40:52.073Z,7.40
2022-12-11T18:43:41.745Z,8.23
2022-12-11T18:46:31.228Z,8.20
2022-12-11T18:49:22.816Z,7.90
2022-12-11T18:52:12.380Z,7.37
2022-12-11T18:55:01.676Z,8.30
2022-12-11T18:57:51.304Z,15.57
2022-12-11T19:00:40.980Z,13.10
2022-12-11T19:03:30.032Z,10.17
2022-12-11T19:06:22.164Z,12.20
2022-12-11T19:09:13.287Z,10.67
2022-12-11T19:12:02.191Z,11.90
2022-12-11T19:14:51.501Z,9.70
2022-12-11T19:17:40.666Z,9.10
2022-12-11T19:20:48.495Z,8.60
2022-12-11T19:23:39.508Z,9.07
2022-12-11T19:26:29.035Z,9.83
2022-12-11T19:29:22.989Z,10.73
2022-12-11T19:32:12.386Z,12.13
2022-12-11T19:35:01.599Z,10.90
2022-12-11T19:37:54.086Z,10.53
2022-12-11T19:40:45.923Z,9.87
2022-12-11T19:43:35.314Z,9.77
2022-12-11T19:46:25.949Z,9.97
2022-12-11T19:49:15.195Z,10.13
2022-12-11T19:52:04.657Z,12.93
2022-12-11T19:58:10.178Z,11.63
2022-12-11T20:01:00.350Z,11.77
2022-12-11T20:03:50.108Z,11.57
2022-12-11T20:06:42.110Z,10.47
2022-12-11T20:09:31.129Z,11.57
2022-12-11T20:12:20.285Z,13.13
2022-12-11T20:15:12.135Z,11.90
2022-12-11T20:18:02.503Z,12.37
2022-12-11T20:20:51.847Z,10.87
2022-12-11T20:23:40.988Z,10.17
2022-12-11T20:26:32.578Z,9.97
2022-12-11T20:29:21.864Z,11.07
2022-12-11T20:32:12.859Z,9.57
2022-12-11T20:35:02.199Z,9.07
2022-12-11T20:37:51.952Z,8.53
2022-12-11T20:40:41.026Z,8.40
2022-12-11T20:43:30.322Z,9.00
2022-12-11T20:46:20.928Z,8.83
2022-12-11T20:49:13.097Z,9.43
2022-12-11T20:52:02.387Z,9.43
2022-12-11T20:54:51.254Z,9.83
2022-12-11T20:57:45.021Z,9.33
2022-12-11T21:00:34.653Z,11.07
2022-12-11T21:03:23.867Z,11.30
2022-12-11T21:06:21.998Z,10.33
2022-12-11T21:09:13.460Z,10.87
2022-12-11T21:12:02.946Z,11.47
2022-12-11T21:14:51.824Z,10.10
2022-12-11T21:17:40.811Z,10.20
2022-12-11T21:20:30.027Z,10.17
2022-12-11T21:23:20.647Z,15.80
2022-12-11T21:26:10.019Z,18.93
2022-12-11T21:28:59.224Z,25.97
2022-12-11T21:31:48.797Z,24.20
2022-12-11T21:34:38.842Z,26.20
2022-12-11T21:37:28.285Z,23.03
2022-12-11T21:40:20.111Z,25.57
2022-12-11T21:43:09.094Z,17.13
2022-12-11T21:46:01.558Z,22.40
2022-12-11T21:48:51.993Z,22.00
2022-12-11T21:51:47.104Z,20.60
2022-12-11T21:54:37.652Z,18.40
2022-12-11T21:57:28.386Z,21.07
2022-12-11T22:00:18.482Z,19.77
2022-12-11T22:03:07.988Z,20.83
2022-12-11T22:05:57.123Z,17.20
2022-12-11T22:08:47.078Z,20.53
2022-12-11T22:11:37.565Z,18.70
2022-12-11T22:14:28.318Z,21.30
2022-12-11T22:17:18.490Z,24.40
2022-12-11T22:20:09.412Z,22.40
2022-12-11T22:22:58.450Z,20.63
2022-12-11T22:25:47.794Z,21.27
2022-12-11T22:28:37.279Z,20.83
2022-12-11T22:31:29.338Z,20.50
2022-12-11T22:34:18.919Z,20.80
2022-12-11T22:37:08.428Z,15.93
2022-12-11T22:39:57.767Z,17.30
2022-12-11T22:42:46.623Z,18.90
2022-12-11T22:45:41.116Z,15.70
2022-12-11T22:48:32.597Z,17.07
2022-12-11T22:51:21.993Z,16.70
2022-12-11T22:54:11.790Z,17.43
2022-12-11T22:57:01.899Z,14.30
2022-12-11T22:59:51.489Z,15.20
2022-12-11T23:02:40.676Z,16.07
2022-12-11T23:05:32.289Z,17.93
2022-12-11T23:08:21.905Z,18.20
2022-12-11T23:11:15.911Z,15.27
2022-12-11T23:14:05.536Z,15.10
2022-12-11T23:16:55.109Z,14.80
2022-12-11T23:19:45.721Z,16.47
2022-12-11T23:22:36.050Z,17.80
2022-12-11T23:25:25.385Z,18.23
2022-12-11T23:28:14.408Z,15.10
2022-12-11T23:31:03.593Z,16.70
2022-12-11T23:33:53.113Z,15.13
2022-12-11T23:36:42.287Z,20.23
2022-12-11T23:39:33.319Z,13.73
2022-12-11T23:42:23.230Z,13.80
2022-12-11T23:45:12.772Z,16.07
2022-12-11T23:48:01.939Z,16.73
2022-12-11T23:50:52.299Z,15.90
2022-12-11T23:53:41.926Z,15.50
2022-12-11T23:56:32.550Z,14.63
2022-12-11T23:59:21.684Z,15.87
